Observations

Aujourd'hui

  • Température

    Max: 7.6° à 00:01:45

    Moy: 6.6°

    Min: 6.0° à 01:40:41

 

  • Humidité

    Max: 85% à 02:03:58

    Min: 81% à 01:28:19

 

  • Précipitation accumulée

    Aujourd'hui: 0 mm

    Ce mois-ci: 40 mm

    Cette année: 249 mm



HeureTemperaturePoint de roséeHumiditéDir. VentVitesseRafalesPressionPrecip.Precip. Accum.
02:04 6.2°C 3.7°C 84% 0 km/h 0 km/h 1028 hPa 0 mm/hr 0 mm
01:59 6.2°C 3.7°C 84% 0 km/h 0 km/h 1028 hPa 0 mm/hr 0 mm
01:54 6.2°C 3.7°C 84% 0 km/h 0 km/h 1028 hPa 0 mm/hr 0 mm
01:49 6.2°C 3.5°C 83% 0 km/h 0 km/h 1028 hPa 0 mm/hr 0 mm
01:44 6.1°C 3.4°C 83% 0 km/h 0 km/h 1028 hPa 0 mm/hr 0 mm
01:39 6°C 3.2°C 82% 0 km/h 0 km/h 1028 hPa 0 mm/hr 0 mm
01:34 6°C 3.2°C 82% 0 km/h 0 km/h 1028 hPa 0 mm/hr 0 mm
01:29 6°C 3°C 81% 0 km/h 0 km/h 1028 hPa 0 mm/hr 0 mm
01:24 6°C 3°C 81% 0 km/h 0 km/h 1028 hPa 0 mm/hr 0 mm
01:19 6°C 3°C 81% 0 km/h 0 km/h 1028 hPa 0 mm/hr 0 mm
01:14 6.1°C 3.1°C 81% 0 km/h 0 km/h 1028 hPa 0 mm/hr 0 mm
01:09 6.2°C 3.2°C 81% 0 km/h 0 km/h 1028 hPa 0 mm/hr 0 mm
01:04 6.3°C 3.3°C 81% 0 km/h 0 km/h 1028 hPa 0 mm/hr 0 mm
00:59 6.5°C 3.5°C 81% 0 km/h 0 km/h 1028 hPa 0 mm/hr 0 mm
00:54 6.6°C 3.6°C 81% 0 km/h 0 km/h 1028 hPa 0 mm/hr 0 mm
00:49 6.7°C 3.7°C 81% 0 km/h 0 km/h 1028 hPa 0 mm/hr 0 mm
00:44 6.8°C 3.8°C 81% 0 km/h 0 km/h 1028 hPa 0 mm/hr 0 mm
00:39 7°C 4°C 81% 0 km/h 0 km/h 1028 hPa 0 mm/hr 0 mm
00:34 7.1°C 4.1°C 81% 0 km/h 0 km/h 1028 hPa 0 mm/hr 0 mm
00:29 7.2°C 4.2°C 81% 0 km/h 4.3 km/h 1028 hPa 0 mm/hr 0 mm
00:24 7.3°C 4.2°C 81% 0 km/h 4.3 km/h 1028 hPa 0 mm/hr 0 mm
00:19 7.3°C 4.2°C 81% 0 km/h 0 km/h 1028 hPa 0 mm/hr 0 mm
00:14 7.4°C 4.4°C 81% 0 km/h 0 km/h 1028 hPa 0 mm/hr 0 mm
00:09 7.5°C 4.5°C 81% 0 km/h 0 km/h 1028 hPa 0 mm/hr 0 mm
00:04 7.5°C 4.6°C 82% 0 km/h 0 km/h 1028 hPa 0 mm/hr 0 mm